Terminal Aerodrome Forecast
Issued by NWS El Paso, TX

Home | Current Version | Previous Version | Text Only | Print | Product List | Glossary On
Versions: 1 2 3 4 5 6 7 8 9 10 11 12 13 14 15 16
000
FTUS44 KEPZ 282340
TAFELP
TAF
KELP 282340Z 2900/2924 29015G25KT P6SM VCSH SCT080 BKN100
      TEMPO 2900/2903 -SHRA
     FM290600 27020G30KT P6SM VCSH BKN060 BKN120
      TEMPO 2908/2912 27030G40KT 4SM BLDU
     FM291500 29020G30KT P6SM BKN050 BKN120
     FM291900 32015G25KT P6SM SCT050 SCT120=

USA.gov is the U.S. government's official web portal to all federal, state and local government web resources and services.